createdAt,value
2018-01-14T00:00:20.077Z,16.90
2018-01-14T00:03:25.868Z,15.63
2018-01-14T00:06:30.741Z,13.63
2018-01-14T00:09:35.938Z,16.40
2018-01-14T00:12:41.597Z,14.73
2018-01-14T00:15:46.749Z,14.53
2018-01-14T00:18:52.329Z,14.07
2018-01-14T00:21:57.769Z,12.50
2018-01-14T00:25:03.261Z,13.27
2018-01-14T00:28:08.622Z,12.83
2018-01-14T00:31:13.553Z,13.27
2018-01-14T00:34:19.577Z,12.80
2018-01-14T00:37:26.030Z,13.80
2018-01-14T00:40:31.611Z,12.57
2018-01-14T00:43:37.361Z,11.63
2018-01-14T00:46:42.882Z,12.23
2018-01-14T00:49:48.397Z,12.73
2018-01-14T00:52:54.124Z,12.70
2018-01-14T00:55:59.402Z,12.50
2018-01-14T00:59:04.788Z,13.27
2018-01-14T01:02:10.261Z,11.87
2018-01-14T01:05:16.127Z,10.90
2018-01-14T01:08:21.669Z,13.40
2018-01-14T01:11:27.353Z,12.00
2018-01-14T01:14:33.124Z,12.80
2018-01-14T01:17:39.268Z,13.07
2018-01-14T01:20:45.845Z,11.50
2018-01-14T01:23:51.365Z,12.30
2018-01-14T01:26:57.002Z,11.93
2018-01-14T01:30:02.272Z,10.80
2018-01-14T01:33:08.025Z,12.50
2018-01-14T01:36:13.378Z,11.23
2018-01-14T01:39:20.990Z,11.83
2018-01-14T01:42:26.277Z,11.33
2018-01-14T01:45:31.117Z,12.47
2018-01-14T01:48:36.085Z,12.40
2018-01-14T01:51:41.163Z,11.30
2018-01-14T01:54:46.418Z,11.97
2018-01-14T01:57:51.345Z,11.53
2018-01-14T02:00:57.440Z,12.27
2018-01-14T02:04:03.505Z,11.60
2018-01-14T02:07:08.397Z,12.30
2018-01-14T02:10:13.210Z,12.60
2018-01-14T02:13:18.450Z,10.90
2018-01-14T02:16:25.034Z,11.17
2018-01-14T02:19:31.377Z,12.07
2018-01-14T02:22:37.058Z,12.30
2018-01-14T02:25:43.178Z,12.47
2018-01-14T02:28:49.249Z,12.10
2018-01-14T02:31:55.854Z,12.70
2018-01-14T02:35:00.685Z,12.13
2018-01-14T02:38:05.545Z,12.40
2018-01-14T02:41:10.847Z,13.27
2018-01-14T02:44:15.825Z,11.50
2018-01-14T02:47:21.661Z,12.57
2018-01-14T02:50:27.302Z,13.17
2018-01-14T02:53:32.190Z,12.80
2018-01-14T02:56:37.978Z,12.30
2018-01-14T02:59:43.053Z,12.57
2018-01-14T03:02:48.750Z,11.20
2018-01-14T03:05:55.236Z,13.23
2018-01-14T03:09:00.797Z,13.40
2018-01-14T03:12:05.810Z,12.23
2018-01-14T03:15:10.944Z,11.87
2018-01-14T03:18:16.591Z,11.67
2018-01-14T03:21:21.946Z,12.17
2018-01-14T03:24:27.389Z,12.27
2018-01-14T03:27:32.045Z,12.63
2018-01-14T03:30:37.749Z,13.17
2018-01-14T03:33:43.665Z,11.80
2018-01-14T03:36:49.260Z,11.63
2018-01-14T03:39:55.637Z,11.97
2018-01-14T03:43:00.746Z,11.80
2018-01-14T03:46:06.641Z,12.60
2018-01-14T03:49:12.153Z,12.47
2018-01-14T03:52:17.538Z,13.90
2018-01-14T03:55:22.636Z,12.87
2018-01-14T03:58:27.897Z,12.37
2018-01-14T04:01:33.457Z,14.20
2018-01-14T04:04:39.021Z,13.40
2018-01-14T04:07:44.158Z,12.70
2018-01-14T04:10:50.253Z,11.60
2018-01-14T04:13:55.413Z,12.83
2018-01-14T04:17:01.072Z,12.33
2018-01-14T04:20:06.561Z,12.10
2018-01-14T04:23:12.305Z,11.73
2018-01-14T04:26:18.062Z,12.87
2018-01-14T04:29:23.745Z,12.23
2018-01-14T04:32:29.569Z,12.23
2018-01-14T04:35:34.893Z,14.03
2018-01-14T04:38:40.345Z,16.17
2018-01-14T04:41:45.432Z,15.87
2018-01-14T04:44:50.983Z,14.87
2018-01-14T04:47:55.925Z,14.87
2018-01-14T04:51:01.061Z,15.07
2018-01-14T04:54:06.133Z,15.97
2018-01-14T04:57:12.297Z,16.30
2018-01-14T05:00:17.665Z,17.30
2018-01-14T05:03:24.114Z,16.93
2018-01-14T05:06:28.931Z,17.17
2018-01-14T05:09:34.341Z,16.77
2018-01-14T05:12:39.629Z,17.80
2018-01-14T05:15:45.441Z,17.40
2018-01-14T05:18:50.702Z,16.30
2018-01-14T05:21:56.418Z,16.80
2018-01-14T05:25:01.685Z,16.77
2018-01-14T05:28:06.533Z,16.07
2018-01-14T05:31:12.442Z,16.80
2018-01-14T05:34:17.969Z,16.80
2018-01-14T05:37:23.169Z,15.53
2018-01-14T05:40:28.250Z,16.50
2018-01-14T05:43:34.645Z,15.17
2018-01-14T05:46:40.081Z,16.07
2018-01-14T05:49:45.598Z,15.77
2018-01-14T05:52:51.009Z,14.60
2018-01-14T05:55:56.806Z,14.47
2018-01-14T05:59:02.201Z,16.00
2018-01-14T06:02:08.497Z,14.13
2018-01-14T06:05:14.894Z,15.23
2018-01-14T06:08:21.098Z,15.77
2018-01-14T06:11:27.530Z,16.47
2018-01-14T06:14:32.529Z,15.37
2018-01-14T06:17:38.857Z,15.80
2018-01-14T06:20:44.664Z,15.63
2018-01-14T06:23:49.646Z,14.60
2018-01-14T06:26:54.838Z,15.90
2018-01-14T06:30:01.138Z,15.87
2018-01-14T06:33:06.677Z,14.57
2018-01-14T06:36:12.957Z,16.47
2018-01-14T06:39:18.169Z,16.03
2018-01-14T06:42:23.112Z,15.33
2018-01-14T06:45:28.741Z,15.80
2018-01-14T06:48:34.351Z,15.60
2018-01-14T06:51:39.675Z,16.47
2018-01-14T06:54:45.166Z,15.77
2018-01-14T06:57:52.029Z,16.20
2018-01-14T07:00:57.602Z,17.03
2018-01-14T07:04:03.373Z,16.33
2018-01-14T07:07:08.722Z,17.17
2018-01-14T07:10:14.337Z,16.90
2018-01-14T07:13:19.642Z,17.63
2018-01-14T07:16:24.393Z,16.13
2018-01-14T07:19:29.425Z,16.07
2018-01-14T07:22:35.225Z,16.57
2018-01-14T07:25:40.377Z,16.47
2018-01-14T07:28:45.481Z,17.20
2018-01-14T07:31:50.518Z,18.20
2018-01-14T07:34:56.097Z,16.60
2018-01-14T07:38:01.090Z,17.90
2018-01-14T07:41:06.797Z,17.17
2018-01-14T07:44:12.325Z,17.87
2018-01-14T07:47:18.105Z,18.70
2018-01-14T07:50:23.077Z,17.90
2018-01-14T07:53:28.431Z,19.90
2018-01-14T07:56:34.127Z,20.37
2018-01-14T07:59:39.593Z,18.80
2018-01-14T08:02:45.862Z,19.70
2018-01-14T08:05:50.889Z,18.07
2018-01-14T08:08:57.313Z,18.50
2018-01-14T08:12:02.662Z,18.57
2018-01-14T08:15:07.686Z,18.37
2018-01-14T08:18:12.954Z,18.07
2018-01-14T08:21:18.869Z,20.20
2018-01-14T08:24:24.502Z,18.93
2018-01-14T08:27:29.441Z,16.60
2018-01-14T08:30:35.478Z,16.70
2018-01-14T08:33:41.993Z,17.00
2018-01-14T08:36:47.365Z,16.30
2018-01-14T08:39:52.445Z,16.67
2018-01-14T08:42:58.929Z,15.70
2018-01-14T08:46:03.866Z,16.90
2018-01-14T08:49:09.613Z,15.67
2018-01-14T08:52:15.714Z,16.47
2018-01-14T08:55:21.010Z,15.33
2018-01-14T08:58:26.625Z,15.33
2018-01-14T09:01:38.361Z,29.43
2018-01-14T09:04:44.447Z,15.57
2018-01-14T09:07:49.473Z,15.47
2018-01-14T09:10:54.945Z,15.40
2018-01-14T09:14:00.416Z,15.80
2018-01-14T09:17:05.518Z,16.90
2018-01-14T09:20:11.003Z,18.23
2018-01-14T09:23:16.564Z,14.03
2018-01-14T09:26:22.402Z,14.93
2018-01-14T09:29:27.486Z,15.30
2018-01-14T09:32:33.289Z,14.80
2018-01-14T09:35:39.617Z,15.97
2018-01-14T09:38:44.743Z,13.50
2018-01-14T09:41:49.889Z,13.60
2018-01-14T09:44:56.314Z,13.80
2018-01-14T09:48:01.825Z,14.27
2018-01-14T09:51:06.946Z,14.10
2018-01-14T09:54:13.359Z,13.77
2018-01-14T09:57:18.831Z,14.90
2018-01-14T10:00:23.976Z,13.57
2018-01-14T10:03:29.311Z,15.47
2018-01-14T10:06:35.517Z,14.20
2018-01-14T10:09:41.280Z,12.80
2018-01-14T10:12:46.505Z,13.30
2018-01-14T10:15:59.734Z,13.70
2018-01-14T10:19:05.396Z,13.67
2018-01-14T10:22:11.354Z,13.77
2018-01-14T10:25:16.251Z,13.07
2018-01-14T10:28:21.856Z,13.00
2018-01-14T10:31:27.354Z,13.60
2018-01-14T10:34:32.353Z,13.83
2018-01-14T10:37:37.277Z,13.93
2018-01-14T10:40:42.674Z,13.20
2018-01-14T10:43:48.438Z,12.83
2018-01-14T10:46:53.935Z,14.07
2018-01-14T10:49:59.510Z,14.17
2018-01-14T10:53:04.351Z,13.67
2018-01-14T10:56:10.058Z,13.33
2018-01-14T10:59:15.342Z,13.50
2018-01-14T11:02:20.904Z,14.77
2018-01-14T11:05:26.802Z,12.77
2018-01-14T11:08:32.113Z,13.40
2018-01-14T11:11:37.393Z,13.37
2018-01-14T11:14:42.970Z,13.87
2018-01-14T11:17:48.426Z,13.40
2018-01-14T11:20:54.094Z,13.50
2018-01-14T11:23:59.685Z,14.87
2018-01-14T11:27:05.366Z,14.20
2018-01-14T11:30:14.982Z,16.17
2018-01-14T11:33:20.249Z,12.50
2018-01-14T11:36:25.313Z,12.27
2018-01-14T11:39:30.869Z,14.80
2018-01-14T11:42:37.341Z,12.10
2018-01-14T11:45:42.377Z,12.00
2018-01-14T11:48:48.781Z,11.10
2018-01-14T11:51:55.274Z,11.93
2018-01-14T11:55:01.497Z,11.17
2018-01-14T11:58:06.542Z,10.87
2018-01-14T12:01:11.976Z,10.63
2018-01-14T12:04:16.862Z,12.10
2018-01-14T12:07:21.990Z,12.17
2018-01-14T12:10:27.585Z,12.10
2018-01-14T12:13:35.453Z,10.10
2018-01-14T12:16:40.162Z,11.37
2018-01-14T12:19:45.217Z,12.53
2018-01-14T12:22:50.757Z,11.27
2018-01-14T12:25:57.367Z,11.20
2018-01-14T12:29:02.689Z,12.00
2018-01-14T12:32:08.422Z,10.53
2018-01-14T12:35:15.729Z,10.83
2018-01-14T12:38:21.167Z,10.57
2018-01-14T12:41:26.361Z,11.40
2018-01-14T12:44:32.428Z,11.07
2018-01-14T12:47:37.385Z,12.13
2018-01-14T12:50:42.604Z,12.50
2018-01-14T12:53:47.407Z,14.13
2018-01-14T12:56:52.867Z,16.90
2018-01-14T12:59:58.769Z,13.00
2018-01-14T13:03:04.881Z,9.30
2018-01-14T13:06:09.849Z,9.90
2018-01-14T13:09:14.889Z,9.30
2018-01-14T13:12:20.094Z,9.77
2018-01-14T13:15:25.953Z,9.30
2018-01-14T13:18:32.157Z,9.87
2018-01-14T13:21:37.723Z,11.20
2018-01-14T13:24:42.765Z,9.70
2018-01-14T13:27:48.550Z,10.20
2018-01-14T13:30:53.394Z,9.60
2018-01-14T13:33:58.509Z,8.93
2018-01-14T13:37:04.617Z,8.80
2018-01-14T13:40:09.821Z,9.40
2018-01-14T13:43:16.071Z,10.40
2018-01-14T13:46:21.725Z,10.33
2018-01-14T13:49:27.873Z,10.87
2018-01-14T13:52:33.177Z,10.63
2018-01-14T13:55:39.190Z,9.53
2018-01-14T13:58:44.965Z,9.87
2018-01-14T14:01:50.846Z,10.10
2018-01-14T14:04:56.888Z,10.47
2018-01-14T14:08:03.030Z,10.13
2018-01-14T14:11:08.570Z,11.63
2018-01-14T14:14:14.099Z,10.77
2018-01-14T14:17:19.166Z,9.10
2018-01-14T14:20:25.353Z,8.83
2018-01-14T14:23:31.673Z,9.70
2018-01-14T14:26:36.730Z,10.47
2018-01-14T14:29:41.673Z,9.40
2018-01-14T14:32:47.869Z,9.27
2018-01-14T14:35:53.334Z,9.47
2018-01-14T14:38:58.997Z,8.13
2018-01-14T14:42:04.465Z,9.07
2018-01-14T14:45:09.981Z,9.23
2018-01-14T14:48:14.813Z,9.07
2018-01-14T14:51:20.069Z,9.77
2018-01-14T14:54:24.886Z,9.87
2018-01-14T14:57:31.149Z,9.20
2018-01-14T15:00:36.122Z,8.90
2018-01-14T15:03:40.960Z,8.60
2018-01-14T15:06:46.647Z,8.47
2018-01-14T15:09:52.373Z,9.60
2018-01-14T15:12:57.737Z,8.87
2018-01-14T15:16:03.009Z,8.80
2018-01-14T15:19:08.397Z,10.03
2018-01-14T15:22:14.066Z,9.33
2018-01-14T15:25:19.293Z,9.27
2018-01-14T15:28:24.969Z,11.27
2018-01-14T15:31:30.537Z,10.60
2018-01-14T15:34:36.289Z,8.90
2018-01-14T15:37:41.975Z,9.70
2018-01-14T15:40:47.201Z,8.77
2018-01-14T15:43:52.896Z,10.30
2018-01-14T15:46:57.741Z,9.90
2018-01-14T15:50:03.370Z,11.13
2018-01-14T15:53:08.970Z,9.37
2018-01-14T15:56:13.925Z,10.33
2018-01-14T15:59:19.129Z,9.70
2018-01-14T16:02:25.163Z,9.60
2018-01-14T16:05:31.702Z,10.47
2018-01-14T16:08:36.508Z,10.80
2018-01-14T16:11:42.789Z,10.07
2018-01-14T16:14:48.473Z,10.60
2018-01-14T16:17:54.229Z,10.50
2018-01-14T16:20:59.498Z,10.60
2018-01-14T16:24:04.974Z,11.10
2018-01-14T16:27:10.496Z,10.43
2018-01-14T16:30:15.625Z,11.80
2018-01-14T16:33:21.251Z,10.47
2018-01-14T16:36:26.415Z,11.97
2018-01-14T16:39:31.642Z,9.80
2018-01-14T16:42:36.645Z,11.90
2018-01-14T16:45:41.189Z,12.77
2018-01-14T16:48:46.105Z,10.37
2018-01-14T16:51:50.793Z,10.97
2018-01-14T16:54:56.318Z,11.30
2018-01-14T16:58:01.678Z,10.57
2018-01-14T17:01:06.470Z,9.80
2018-01-14T17:04:12.094Z,10.10
2018-01-14T17:07:17.189Z,11.63
2018-01-14T17:10:22.934Z,10.20
2018-01-14T17:13:28.017Z,11.97
2018-01-14T17:16:34.034Z,11.20
2018-01-14T17:19:39.922Z,11.63
2018-01-14T17:22:45.254Z,11.40
2018-01-14T17:25:50.929Z,11.30
2018-01-14T17:28:56.601Z,10.90
2018-01-14T17:32:02.387Z,11.43
2018-01-14T17:35:07.262Z,11.13
2018-01-14T17:38:12.674Z,11.10
2018-01-14T17:41:19.209Z,10.50
2018-01-14T17:44:24.593Z,10.37
2018-01-14T17:47:30.291Z,11.60
2018-01-14T17:50:35.873Z,11.67
2018-01-14T17:53:41.185Z,10.60
2018-01-14T17:56:45.882Z,9.80
2018-01-14T17:59:51.726Z,10.70
2018-01-14T18:02:57.308Z,9.60
2018-01-14T18:06:03.082Z,10.50
2018-01-14T18:09:08.433Z,9.90
2018-01-14T18:12:14.525Z,10.00
2018-01-14T18:15:19.863Z,10.77
2018-01-14T18:18:25.438Z,11.03
2018-01-14T18:21:30.506Z,10.43
2018-01-14T18:24:35.941Z,10.17
2018-01-14T18:27:41.654Z,10.80
2018-01-14T18:30:46.296Z,10.60
2018-01-14T18:33:51.967Z,9.83
2018-01-14T18:36:57.098Z,9.53
2018-01-14T18:40:02.945Z,11.67
2018-01-14T18:43:08.638Z,10.23
2018-01-14T18:46:24.609Z,9.70
2018-01-14T18:49:31.132Z,10.93
2018-01-14T18:52:36.390Z,10.20
2018-01-14T18:55:41.600Z,10.80
2018-01-14T18:58:46.938Z,10.40
2018-01-14T19:01:52.214Z,9.40
2018-01-14T19:04:57.517Z,10.47
2018-01-14T19:08:02.522Z,8.93
2018-01-14T19:11:07.721Z,10.40
2018-01-14T19:14:12.718Z,9.90
2018-01-14T19:17:18.335Z,9.10
2018-01-14T19:20:24.171Z,9.80
2018-01-14T19:23:29.278Z,11.30
2018-01-14T19:26:34.146Z,11.30
2018-01-14T19:29:39.590Z,10.50
2018-01-14T19:32:45.356Z,10.40
2018-01-14T19:35:51.193Z,11.40
2018-01-14T19:38:56.999Z,11.30
2018-01-14T19:42:02.173Z,11.50
2018-01-14T19:45:07.813Z,11.73
2018-01-14T19:48:13.634Z,12.83
2018-01-14T19:51:18.658Z,11.90
2018-01-14T19:54:23.942Z,12.57
2018-01-14T19:57:29.522Z,11.17
2018-01-14T20:00:34.652Z,12.73
2018-01-14T20:03:39.660Z,12.60
2018-01-14T20:06:44.905Z,13.40
2018-01-14T20:09:49.889Z,12.37
2018-01-14T20:12:54.906Z,12.67
2018-01-14T20:16:00.449Z,12.53
2018-01-14T20:19:05.927Z,12.83
2018-01-14T20:22:12.051Z,12.30
2018-01-14T20:25:18.191Z,12.70
2018-01-14T20:28:24.034Z,12.10
2018-01-14T20:31:29.405Z,11.53
2018-01-14T20:34:35.233Z,11.10
2018-01-14T20:37:41.005Z,12.23
2018-01-14T20:40:46.377Z,12.60
2018-01-14T20:43:52.020Z,13.60
2018-01-14T20:46:56.950Z,13.13
2018-01-14T20:50:02.585Z,13.30
2018-01-14T20:53:08.378Z,12.73
2018-01-14T20:56:13.232Z,12.90
2018-01-14T20:59:18.460Z,12.27
2018-01-14T21:02:23.869Z,12.60
2018-01-14T21:05:29.350Z,12.47
2018-01-14T21:08:35.053Z,11.40
2018-01-14T21:11:40.308Z,12.30
2018-01-14T21:14:45.565Z,13.37
2018-01-14T21:17:51.003Z,12.00
2018-01-14T21:20:55.819Z,11.07
2018-01-14T21:24:01.134Z,11.70
2018-01-14T21:27:05.958Z,11.80
2018-01-14T21:30:11.314Z,12.77
2018-01-14T21:33:16.982Z,11.13
2018-01-14T21:36:22.477Z,12.87
2018-01-14T21:39:28.049Z,10.60
2018-01-14T21:42:33.429Z,11.40
2018-01-14T21:45:39.353Z,13.37
2018-01-14T21:48:46.501Z,13.33
2018-01-14T21:51:51.842Z,14.30
2018-01-14T21:54:57.376Z,14.13
2018-01-14T21:58:02.729Z,17.50
2018-01-14T22:01:07.781Z,17.43
2018-01-14T22:04:12.511Z,16.07
2018-01-14T22:07:17.785Z,14.73
2018-01-14T22:10:22.757Z,15.80
2018-01-14T22:13:28.206Z,15.13
2018-01-14T22:16:33.262Z,15.27
2018-01-14T22:19:38.329Z,15.27
2018-01-14T22:22:43.694Z,15.77
2018-01-14T22:25:48.573Z,14.20
2018-01-14T22:28:54.045Z,14.47
2018-01-14T22:32:00.297Z,15.10
2018-01-14T22:35:06.549Z,14.30
2018-01-14T22:38:12.009Z,13.87
2018-01-14T22:41:16.965Z,13.20
2018-01-14T22:44:22.833Z,13.03
2018-01-14T22:47:27.563Z,11.80
2018-01-14T22:50:33.473Z,11.40
2018-01-14T22:53:39.174Z,13.30
2018-01-14T22:56:44.195Z,12.23
2018-01-14T22:59:49.578Z,13.07
2018-01-14T23:02:55.017Z,12.53
2018-01-14T23:05:59.802Z,13.63
2018-01-14T23:09:05.362Z,13.27
2018-01-14T23:12:10.685Z,10.97
2018-01-14T23:15:16.421Z,12.27
2018-01-14T23:18:22.076Z,12.47
2018-01-14T23:21:27.154Z,13.70
2018-01-14T23:24:33.321Z,13.63
2018-01-14T23:27:39.561Z,13.77
2018-01-14T23:30:45.094Z,15.77
2018-01-14T23:33:49.981Z,13.20
2018-01-14T23:36:55.546Z,13.27
2018-01-14T23:40:02.022Z,13.50
2018-01-14T23:43:08.273Z,13.73
2018-01-14T23:46:12.949Z,14.30
2018-01-14T23:49:17.797Z,14.03
2018-01-14T23:52:23.483Z,13.33
2018-01-14T23:55:28.229Z,14.60
2018-01-14T23:58:33.633Z,17.13
